sensor_id;sensor_type;location;lat;lon;timestamp;P1;durP1;ratioP1;P2;durP2;ratioP2
29984;SDS011;17387;42.690;23.328;2022-08-19T00:00:28;13.48;;;8.50;;
29984;SDS011;17387;42.690;23.328;2022-08-19T00:02:53;13.32;;;9.10;;
29984;SDS011;17387;42.690;23.328;2022-08-19T00:05:19;12.70;;;8.60;;
29984;SDS011;17387;42.690;23.328;2022-08-19T00:07:49;15.50;;;9.35;;
29984;SDS011;17387;42.690;23.328;2022-08-19T00:10:15;14.02;;;9.73;;
29984;SDS011;17387;42.690;23.328;2022-08-19T00:12:45;13.05;;;9.30;;
29984;SDS011;17387;42.690;23.328;2022-08-19T00:15:11;14.18;;;10.30;;
29984;SDS011;17387;42.690;23.328;2022-08-19T00:17:39;16.35;;;10.85;;
29984;SDS011;17387;42.690;23.328;2022-08-19T00:20:06;18.08;;;10.25;;
29984;SDS011;17387;42.690;23.328;2022-08-19T00:22:33;16.52;;;9.77;;
29984;SDS011;17387;42.690;23.328;2022-08-19T00:24:59;13.38;;;9.20;;
29984;SDS011;17387;42.690;23.328;2022-08-19T00:27:25;14.25;;;10.07;;
29984;SDS011;17387;42.690;23.328;2022-08-19T00:29:50;17.83;;;10.40;;
29984;SDS011;17387;42.690;23.328;2022-08-19T00:32:16;18.70;;;10.68;;
29984;SDS011;17387;42.690;23.328;2022-08-19T00:34:42;14.65;;;9.98;;
29984;SDS011;17387;42.690;23.328;2022-08-19T00:37:08;12.95;;;8.90;;
29984;SDS011;17387;42.690;23.328;2022-08-19T00:39:34;15.55;;;9.75;;
29984;SDS011;17387;42.690;23.328;2022-08-19T00:42:00;15.40;;;9.60;;
29984;SDS011;17387;42.690;23.328;2022-08-19T00:44:27;15.38;;;8.93;;
29984;SDS011;17387;42.690;23.328;2022-08-19T00:46:54;12.20;;;8.98;;
29984;SDS011;17387;42.690;23.328;2022-08-19T00:49:28;14.18;;;9.40;;
29984;SDS011;17387;42.690;23.328;2022-08-19T00:54:47;15.48;;;9.20;;
29984;SDS011;17387;42.690;23.328;2022-08-19T00:57:15;12.02;;;8.80;;
29984;SDS011;17387;42.690;23.328;2022-08-19T00:59:44;15.32;;;9.32;;
29984;SDS011;17387;42.690;23.328;2022-08-19T01:02:15;12.07;;;8.52;;
29984;SDS011;17387;42.690;23.328;2022-08-19T01:04:41;15.00;;;9.18;;
29984;SDS011;17387;42.690;23.328;2022-08-19T01:07:07;15.05;;;8.93;;
29984;SDS011;17387;42.690;23.328;2022-08-19T01:09:33;11.48;;;8.90;;
29984;SDS011;17387;42.690;23.328;2022-08-19T01:11:59;13.48;;;8.80;;
29984;SDS011;17387;42.690;23.328;2022-08-19T01:14:25;13.77;;;8.50;;
29984;SDS011;17387;42.690;23.328;2022-08-19T01:16:50;13.98;;;7.93;;
29984;SDS011;17387;42.690;23.328;2022-08-19T01:21:50;11.38;;;8.20;;
29984;SDS011;17387;42.690;23.328;2022-08-19T01:24:20;12.85;;;8.55;;
29984;SDS011;17387;42.690;23.328;2022-08-19T01:26:46;12.23;;;7.50;;
29984;SDS011;17387;42.690;23.328;2022-08-19T01:29:12;11.40;;;7.47;;
29984;SDS011;17387;42.690;23.328;2022-08-19T01:31:38;15.98;;;7.97;;
29984;SDS011;17387;42.690;23.328;2022-08-19T01:34:04;11.60;;;7.93;;
29984;SDS011;17387;42.690;23.328;2022-08-19T01:36:38;8.40;;;7.50;;
29984;SDS011;17387;42.690;23.328;2022-08-19T01:39:08;10.05;;;7.90;;
29984;SDS011;17387;42.690;23.328;2022-08-19T01:41:36;9.85;;;7.78;;
29984;SDS011;17387;42.690;23.328;2022-08-19T01:44:02;11.98;;;7.80;;
29984;SDS011;17387;42.690;23.328;2022-08-19T01:46:29;12.07;;;7.78;;
29984;SDS011;17387;42.690;23.328;2022-08-19T01:48:55;9.18;;;7.65;;
29984;SDS011;17387;42.690;23.328;2022-08-19T01:51:21;11.35;;;7.78;;
29984;SDS011;17387;42.690;23.328;2022-08-19T01:53:47;10.77;;;7.93;;
29984;SDS011;17387;42.690;23.328;2022-08-19T01:56:14;14.05;;;8.35;;
29984;SDS011;17387;42.690;23.328;2022-08-19T01:58:41;10.90;;;7.63;;
29984;SDS011;17387;42.690;23.328;2022-08-19T02:01:11;12.40;;;8.63;;
29984;SDS011;17387;42.690;23.328;2022-08-19T02:03:37;13.23;;;7.95;;
29984;SDS011;17387;42.690;23.328;2022-08-19T02:06:03;9.70;;;8.02;;
29984;SDS011;17387;42.690;23.328;2022-08-19T02:08:31;9.80;;;8.30;;
29984;SDS011;17387;42.690;23.328;2022-08-19T02:10:58;9.20;;;8.18;;
29984;SDS011;17387;42.690;23.328;2022-08-19T02:13:24;13.25;;;7.78;;
29984;SDS011;17387;42.690;23.328;2022-08-19T02:15:50;10.38;;;7.80;;
29984;SDS011;17387;42.690;23.328;2022-08-19T02:18:16;9.10;;;7.60;;
29984;SDS011;17387;42.690;23.328;2022-08-19T02:20:42;11.52;;;8.60;;
29984;SDS011;17387;42.690;23.328;2022-08-19T02:23:09;14.38;;;7.80;;
29984;SDS011;17387;42.690;23.328;2022-08-19T02:25:37;11.68;;;8.00;;
29984;SDS011;17387;42.690;23.328;2022-08-19T02:28:03;9.38;;;7.70;;
29984;SDS011;17387;42.690;23.328;2022-08-19T02:30:29;11.05;;;7.63;;
29984;SDS011;17387;42.690;23.328;2022-08-19T02:32:54;16.90;;;8.23;;
29984;SDS011;17387;42.690;23.328;2022-08-19T02:35:20;16.75;;;8.43;;
29984;SDS011;17387;42.690;23.328;2022-08-19T02:37:46;12.65;;;7.68;;
29984;SDS011;17387;42.690;23.328;2022-08-19T02:40:30;12.80;;;8.30;;
29984;SDS011;17387;42.690;23.328;2022-08-19T02:43:03;12.57;;;8.63;;
29984;SDS011;17387;42.690;23.328;2022-08-19T02:45:33;15.88;;;8.85;;
29984;SDS011;17387;42.690;23.328;2022-08-19T02:47:59;9.70;;;8.70;;
29984;SDS011;17387;42.690;23.328;2022-08-19T02:50:24;10.90;;;9.20;;
29984;SDS011;17387;42.690;23.328;2022-08-19T02:52:50;10.48;;;9.00;;
29984;SDS011;17387;42.690;23.328;2022-08-19T02:55:16;11.02;;;9.25;;
29984;SDS011;17387;42.690;23.328;2022-08-19T02:57:41;12.57;;;9.85;;
29984;SDS011;17387;42.690;23.328;2022-08-19T03:00:07;11.60;;;9.35;;
29984;SDS011;17387;42.690;23.328;2022-08-19T03:02:37;12.07;;;9.88;;
29984;SDS011;17387;42.690;23.328;2022-08-19T03:05:03;11.43;;;9.52;;
29984;SDS011;17387;42.690;23.328;2022-08-19T03:07:29;12.18;;;9.60;;
29984;SDS011;17387;42.690;23.328;2022-08-19T03:09:55;13.23;;;9.70;;
29984;SDS011;17387;42.690;23.328;2022-08-19T03:12:20;10.70;;;9.60;;
29984;SDS011;17387;42.690;23.328;2022-08-19T03:14:46;12.50;;;10.07;;
29984;SDS011;17387;42.690;23.328;2022-08-19T03:17:11;15.18;;;10.55;;
29984;SDS011;17387;42.690;23.328;2022-08-19T03:19:37;10.95;;;9.85;;
29984;SDS011;17387;42.690;23.328;2022-08-19T03:22:03;11.13;;;9.60;;
29984;SDS011;17387;42.690;23.328;2022-08-19T03:24:29;12.27;;;9.88;;
29984;SDS011;17387;42.690;23.328;2022-08-19T03:26:55;11.93;;;10.27;;
29984;SDS011;17387;42.690;23.328;2022-08-19T03:29:25;12.60;;;10.18;;
29984;SDS011;17387;42.690;23.328;2022-08-19T03:31:52;11.82;;;10.25;;
29984;SDS011;17387;42.690;23.328;2022-08-19T03:34:22;15.63;;;10.73;;
29984;SDS011;17387;42.690;23.328;2022-08-19T03:36:51;14.75;;;10.45;;
29984;SDS011;17387;42.690;23.328;2022-08-19T03:39:19;12.35;;;9.98;;
29984;SDS011;17387;42.690;23.328;2022-08-19T03:41:46;14.18;;;10.07;;
29984;SDS011;17387;42.690;23.328;2022-08-19T03:44:16;13.63;;;10.27;;
29984;SDS011;17387;42.690;23.328;2022-08-19T03:46:46;13.02;;;10.35;;
29984;SDS011;17387;42.690;23.328;2022-08-19T03:49:13;14.15;;;11.23;;
29984;SDS011;17387;42.690;23.328;2022-08-19T03:51:38;12.95;;;10.63;;
29984;SDS011;17387;42.690;23.328;2022-08-19T03:54:05;12.98;;;10.55;;
29984;SDS011;17387;42.690;23.328;2022-08-19T03:56:34;14.60;;;10.80;;
29984;SDS011;17387;42.690;23.328;2022-08-19T03:59:01;11.55;;;10.40;;
29984;SDS011;17387;42.690;23.328;2022-08-19T04:01:28;14.32;;;9.98;;
29984;SDS011;17387;42.690;23.328;2022-08-19T04:03:55;11.02;;;9.93;;
29984;SDS011;17387;42.690;23.328;2022-08-19T04:06:22;11.68;;;10.00;;
29984;SDS011;17387;42.690;23.328;2022-08-19T04:08:50;13.32;;;10.98;;
29984;SDS011;17387;42.690;23.328;2022-08-19T04:11:22;13.63;;;10.43;;
29984;SDS011;17387;42.690;23.328;2022-08-19T04:13:49;19.48;;;11.20;;
29984;SDS011;17387;42.690;23.328;2022-08-19T04:16:16;16.30;;;10.85;;
29984;SDS011;17387;42.690;23.328;2022-08-19T04:18:44;17.42;;;10.65;;
29984;SDS011;17387;42.690;23.328;2022-08-19T04:21:14;17.45;;;10.95;;
29984;SDS011;17387;42.690;23.328;2022-08-19T04:23:45;14.93;;;11.30;;
29984;SDS011;17387;42.690;23.328;2022-08-19T04:26:19;16.38;;;11.60;;
29984;SDS011;17387;42.690;23.328;2022-08-19T04:28:47;16.67;;;10.93;;
29984;SDS011;17387;42.690;23.328;2022-08-19T04:31:21;16.98;;;11.93;;
29984;SDS011;17387;42.690;23.328;2022-08-19T04:33:52;14.40;;;11.55;;
29984;SDS011;17387;42.690;23.328;2022-08-19T04:36:27;17.48;;;11.80;;
29984;SDS011;17387;42.690;23.328;2022-08-19T04:41:22;14.02;;;11.43;;
29984;SDS011;17387;42.690;23.328;2022-08-19T04:44:07;16.55;;;11.93;;
29984;SDS011;17387;42.690;23.328;2022-08-19T04:46:33;20.52;;;11.93;;
29984;SDS011;17387;42.690;23.328;2022-08-19T04:48:59;15.13;;;12.15;;
29984;SDS011;17387;42.690;23.328;2022-08-19T04:51:25;19.77;;;12.13;;
29984;SDS011;17387;42.690;23.328;2022-08-19T04:53:50;20.83;;;13.13;;
29984;SDS011;17387;42.690;23.328;2022-08-19T04:56:17;16.60;;;12.48;;
29984;SDS011;17387;42.690;23.328;2022-08-19T04:58:46;14.77;;;12.40;;
29984;SDS011;17387;42.690;23.328;2022-08-19T05:01:17;18.17;;;13.32;;
29984;SDS011;17387;42.690;23.328;2022-08-19T05:03:44;19.70;;;13.23;;
29984;SDS011;17387;42.690;23.328;2022-08-19T05:06:11;18.02;;;12.68;;
29984;SDS011;17387;42.690;23.328;2022-08-19T05:08:39;17.58;;;12.52;;
29984;SDS011;17387;42.690;23.328;2022-08-19T05:11:17;21.27;;;13.17;;
29984;SDS011;17387;42.690;23.328;2022-08-19T05:13:43;18.90;;;13.18;;
29984;SDS011;17387;42.690;23.328;2022-08-19T05:16:10;17.90;;;13.63;;
29984;SDS011;17387;42.690;23.328;2022-08-19T05:18:37;24.23;;;14.40;;
29984;SDS011;17387;42.690;23.328;2022-08-19T05:21:22;23.60;;;14.95;;
29984;SDS011;17387;42.690;23.328;2022-08-19T05:24:20;20.83;;;14.20;;
29984;SDS011;17387;42.690;23.328;2022-08-19T05:26:48;23.35;;;15.40;;
29984;SDS011;17387;42.690;23.328;2022-08-19T05:29:15;23.42;;;14.88;;
29984;SDS011;17387;42.690;23.328;2022-08-19T05:31:43;20.98;;;14.27;;
29984;SDS011;17387;42.690;23.328;2022-08-19T05:34:08;19.70;;;13.68;;
29984;SDS011;17387;42.690;23.328;2022-08-19T05:36:36;19.33;;;13.48;;
29984;SDS011;17387;42.690;23.328;2022-08-19T05:39:13;15.48;;;12.85;;
29984;SDS011;17387;42.690;23.328;2022-08-19T05:41:47;15.32;;;12.95;;
29984;SDS011;17387;42.690;23.328;2022-08-19T05:44:19;22.35;;;15.18;;
29984;SDS011;17387;42.690;23.328;2022-08-19T05:46:46;20.33;;;14.60;;
29984;SDS011;17387;42.690;23.328;2022-08-19T05:49:12;18.65;;;13.77;;
29984;SDS011;17387;42.690;23.328;2022-08-19T05:51:40;23.35;;;13.75;;
29984;SDS011;17387;42.690;23.328;2022-08-19T05:54:07;19.23;;;14.75;;
29984;SDS011;17387;42.690;23.328;2022-08-19T05:56:33;21.10;;;14.07;;
29984;SDS011;17387;42.690;23.328;2022-08-19T05:59:03;19.85;;;13.85;;
29984;SDS011;17387;42.690;23.328;2022-08-19T06:01:33;17.03;;;14.00;;
29984;SDS011;17387;42.690;23.328;2022-08-19T06:03:59;23.42;;;14.18;;
29984;SDS011;17387;42.690;23.328;2022-08-19T06:06:25;18.45;;;12.18;;
29984;SDS011;17387;42.690;23.328;2022-08-19T06:08:50;17.58;;;12.63;;
29984;SDS011;17387;42.690;23.328;2022-08-19T06:13:42;20.70;;;13.27;;
29984;SDS011;17387;42.690;23.328;2022-08-19T06:16:08;18.88;;;12.55;;
29984;SDS011;17387;42.690;23.328;2022-08-19T06:18:34;19.67;;;13.82;;
29984;SDS011;17387;42.690;23.328;2022-08-19T06:20:59;18.25;;;12.05;;
29984;SDS011;17387;42.690;23.328;2022-08-19T06:23:28;17.20;;;12.93;;
29984;SDS011;17387;42.690;23.328;2022-08-19T06:25:54;20.42;;;12.55;;
29984;SDS011;17387;42.690;23.328;2022-08-19T06:28:19;19.00;;;13.05;;
29984;SDS011;17387;42.690;23.328;2022-08-19T06:30:46;17.80;;;11.95;;
29984;SDS011;17387;42.690;23.328;2022-08-19T06:33:11;18.33;;;12.50;;
29984;SDS011;17387;42.690;23.328;2022-08-19T06:35:40;20.80;;;11.82;;
29984;SDS011;17387;42.690;23.328;2022-08-19T06:38:05;22.85;;;11.38;;
29984;SDS011;17387;42.690;23.328;2022-08-19T06:40:34;17.52;;;11.63;;
29984;SDS011;17387;42.690;23.328;2022-08-19T06:43:02;20.10;;;11.07;;
29984;SDS011;17387;42.690;23.328;2022-08-19T06:45:27;16.90;;;11.38;;
29984;SDS011;17387;42.690;23.328;2022-08-19T06:47:53;16.80;;;11.05;;
29984;SDS011;17387;42.690;23.328;2022-08-19T06:50:20;18.55;;;11.02;;
29984;SDS011;17387;42.690;23.328;2022-08-19T06:52:47;21.40;;;10.93;;
29984;SDS011;17387;42.690;23.328;2022-08-19T06:55:12;16.27;;;11.27;;
29984;SDS011;17387;42.690;23.328;2022-08-19T06:57:38;17.25;;;12.02;;
29984;SDS011;17387;42.690;23.328;2022-08-19T07:00:04;20.02;;;12.30;;
29984;SDS011;17387;42.690;23.328;2022-08-19T07:02:31;22.50;;;12.00;;
29984;SDS011;17387;42.690;23.328;2022-08-19T07:04:57;21.35;;;11.48;;
29984;SDS011;17387;42.690;23.328;2022-08-19T07:07:23;21.08;;;10.98;;
29984;SDS011;17387;42.690;23.328;2022-08-19T07:09:49;22.13;;;10.38;;
29984;SDS011;17387;42.690;23.328;2022-08-19T07:12:15;20.85;;;11.10;;
29984;SDS011;17387;42.690;23.328;2022-08-19T07:14:41;15.10;;;10.57;;
29984;SDS011;17387;42.690;23.328;2022-08-19T07:17:08;19.65;;;10.75;;
29984;SDS011;17387;42.690;23.328;2022-08-19T07:19:36;19.10;;;10.43;;
29984;SDS011;17387;42.690;23.328;2022-08-19T07:22:05;16.98;;;10.32;;
29984;SDS011;17387;42.690;23.328;2022-08-19T07:24:32;15.38;;;9.90;;
29984;SDS011;17387;42.690;23.328;2022-08-19T07:27:00;12.25;;;10.95;;
29984;SDS011;17387;42.690;23.328;2022-08-19T07:29:32;16.92;;;9.50;;
29984;SDS011;17387;42.690;23.328;2022-08-19T07:31:58;17.55;;;10.13;;
29984;SDS011;17387;42.690;23.328;2022-08-19T07:34:26;18.05;;;9.00;;
29984;SDS011;17387;42.690;23.328;2022-08-19T07:36:54;13.30;;;9.20;;
29984;SDS011;17387;42.690;23.328;2022-08-19T07:39:25;20.55;;;11.48;;
29984;SDS011;17387;42.690;23.328;2022-08-19T07:41:53;16.95;;;10.43;;
29984;SDS011;17387;42.690;23.328;2022-08-19T07:44:20;16.02;;;9.70;;
29984;SDS011;17387;42.690;23.328;2022-08-19T07:46:47;21.92;;;11.75;;
29984;SDS011;17387;42.690;23.328;2022-08-19T07:49:15;21.17;;;11.57;;
29984;SDS011;17387;42.690;23.328;2022-08-19T07:51:51;26.95;;;14.15;;
29984;SDS011;17387;42.690;23.328;2022-08-19T07:54:20;16.80;;;8.70;;
29984;SDS011;17387;42.690;23.328;2022-08-19T07:56:46;14.63;;;8.82;;
29984;SDS011;17387;42.690;23.328;2022-08-19T07:59:12;14.93;;;8.63;;
29984;SDS011;17387;42.690;23.328;2022-08-19T08:01:38;13.73;;;9.15;;
29984;SDS011;17387;42.690;23.328;2022-08-19T08:04:05;14.00;;;9.10;;
29984;SDS011;17387;42.690;23.328;2022-08-19T08:06:50;12.70;;;7.60;;
29984;SDS011;17387;42.690;23.328;2022-08-19T08:09:36;12.77;;;9.65;;
29984;SDS011;17387;42.690;23.328;2022-08-19T08:12:14;13.05;;;8.70;;
29984;SDS011;17387;42.690;23.328;2022-08-19T08:14:44;17.63;;;11.68;;
29984;SDS011;17387;42.690;23.328;2022-08-19T08:17:13;13.05;;;8.60;;
29984;SDS011;17387;42.690;23.328;2022-08-19T08:19:40;13.38;;;7.80;;
29984;SDS011;17387;42.690;23.328;2022-08-19T08:22:06;9.50;;;7.75;;
29984;SDS011;17387;42.690;23.328;2022-08-19T08:24:32;10.57;;;7.90;;
29984;SDS011;17387;42.690;23.328;2022-08-19T08:27:00;11.15;;;8.30;;
29984;SDS011;17387;42.690;23.328;2022-08-19T08:29:29;12.48;;;7.53;;
29984;SDS011;17387;42.690;23.328;2022-08-19T08:31:56;12.02;;;8.05;;
29984;SDS011;17387;42.690;23.328;2022-08-19T08:34:21;13.95;;;8.30;;
29984;SDS011;17387;42.690;23.328;2022-08-19T08:36:47;16.65;;;8.55;;
29984;SDS011;17387;42.690;23.328;2022-08-19T08:39:14;17.25;;;8.65;;
29984;SDS011;17387;42.690;23.328;2022-08-19T08:44:17;14.02;;;8.20;;
29984;SDS011;17387;42.690;23.328;2022-08-19T08:46:58;13.70;;;8.40;;
29984;SDS011;17387;42.690;23.328;2022-08-19T08:49:32;11.68;;;7.25;;
29984;SDS011;17387;42.690;23.328;2022-08-19T08:52:39;11.57;;;7.28;;
29984;SDS011;17387;42.690;23.328;2022-08-19T08:55:07;12.73;;;8.55;;
29984;SDS011;17387;42.690;23.328;2022-08-19T09:00:06;14.88;;;7.25;;
29984;SDS011;17387;42.690;23.328;2022-08-19T09:02:37;13.73;;;7.65;;
29984;SDS011;17387;42.690;23.328;2022-08-19T09:05:03;7.43;;;6.38;;
29984;SDS011;17387;42.690;23.328;2022-08-19T09:13:15;8.20;;;6.45;;
29984;SDS011;17387;42.690;23.328;2022-08-19T09:15:56;8.48;;;7.10;;
29984;SDS011;17387;42.690;23.328;2022-08-19T09:18:32;14.02;;;7.85;;
29984;SDS011;17387;42.690;23.328;2022-08-19T09:21:24;10.80;;;7.63;;
29984;SDS011;17387;42.690;23.328;2022-08-19T09:23:51;9.20;;;5.75;;
29984;SDS011;17387;42.690;23.328;2022-08-19T09:26:17;8.50;;;5.85;;
29984;SDS011;17387;42.690;23.328;2022-08-19T09:28:45;9.75;;;6.15;;
29984;SDS011;17387;42.690;23.328;2022-08-19T09:31:17;7.82;;;5.32;;
29984;SDS011;17387;42.690;23.328;2022-08-19T09:33:47;10.68;;;5.60;;
29984;SDS011;17387;42.690;23.328;2022-08-19T09:36:15;9.40;;;5.50;;
29984;SDS011;17387;42.690;23.328;2022-08-19T09:38:41;6.97;;;5.10;;
29984;SDS011;17387;42.690;23.328;2022-08-19T09:41:08;11.25;;;4.95;;
29984;SDS011;17387;42.690;23.328;2022-08-19T09:43:39;6.15;;;4.53;;
29984;SDS011;17387;42.690;23.328;2022-08-19T09:46:06;6.95;;;4.57;;
29984;SDS011;17387;42.690;23.328;2022-08-19T09:48:32;7.05;;;4.70;;
29984;SDS011;17387;42.690;23.328;2022-08-19T09:53:34;7.78;;;4.80;;
29984;SDS011;17387;42.690;23.328;2022-08-19T09:56:01;5.85;;;4.53;;
29984;SDS011;17387;42.690;23.328;2022-08-19T09:58:27;6.43;;;4.90;;
29984;SDS011;17387;42.690;23.328;2022-08-19T10:00:54;6.47;;;4.53;;
29984;SDS011;17387;42.690;23.328;2022-08-19T10:03:20;6.40;;;4.20;;
29984;SDS011;17387;42.690;23.328;2022-08-19T10:05:46;7.18;;;4.75;;
29984;SDS011;17387;42.690;23.328;2022-08-19T10:08:15;12.15;;;4.85;;
29984;SDS011;17387;42.690;23.328;2022-08-19T10:10:45;6.63;;;4.57;;
29984;SDS011;17387;42.690;23.328;2022-08-19T10:13:12;8.60;;;4.97;;
29984;SDS011;17387;42.690;23.328;2022-08-19T10:15:40;8.70;;;5.18;;
29984;SDS011;17387;42.690;23.328;2022-08-19T10:18:05;6.80;;;5.03;;
29984;SDS011;17387;42.690;23.328;2022-08-19T10:20:32;6.65;;;5.20;;
29984;SDS011;17387;42.690;23.328;2022-08-19T10:22:57;6.80;;;4.80;;
29984;SDS011;17387;42.690;23.328;2022-08-19T10:25:25;11.10;;;5.07;;
29984;SDS011;17387;42.690;23.328;2022-08-19T10:27:52;6.40;;;4.90;;
29984;SDS011;17387;42.690;23.328;2022-08-19T10:30:18;8.32;;;5.35;;
29984;SDS011;17387;42.690;23.328;2022-08-19T10:32:44;8.60;;;5.10;;
29984;SDS011;17387;42.690;23.328;2022-08-19T10:35:11;5.45;;;4.95;;
29984;SDS011;17387;42.690;23.328;2022-08-19T10:37:37;7.38;;;5.00;;
29984;SDS011;17387;42.690;23.328;2022-08-19T10:40:04;7.38;;;5.70;;
29984;SDS011;17387;42.690;23.328;2022-08-19T10:42:32;7.72;;;4.72;;
29984;SDS011;17387;42.690;23.328;2022-08-19T10:44:58;8.48;;;5.00;;
29984;SDS011;17387;42.690;23.328;2022-08-19T10:47:24;9.77;;;5.50;;
29984;SDS011;17387;42.690;23.328;2022-08-19T10:49:52;6.30;;;5.03;;
29984;SDS011;17387;42.690;23.328;2022-08-19T10:52:38;5.75;;;4.90;;
29984;SDS011;17387;42.690;23.328;2022-08-19T10:55:14;5.65;;;5.05;;
29984;SDS011;17387;42.690;23.328;2022-08-19T10:57:58;6.20;;;5.10;;
29984;SDS011;17387;42.690;23.328;2022-08-19T11:00:24;6.28;;;5.05;;
29984;SDS011;17387;42.690;23.328;2022-08-19T11:02:50;7.38;;;5.30;;
29984;SDS011;17387;42.690;23.328;2022-08-19T11:05:16;7.07;;;5.10;;
29984;SDS011;17387;42.690;23.328;2022-08-19T11:07:43;7.28;;;4.90;;
29984;SDS011;17387;42.690;23.328;2022-08-19T11:10:10;8.00;;;5.13;;
29984;SDS011;17387;42.690;23.328;2022-08-19T11:12:38;8.60;;;5.32;;
29984;SDS011;17387;42.690;23.328;2022-08-19T11:15:06;7.88;;;5.20;;
29984;SDS011;17387;42.690;23.328;2022-08-19T11:17:33;5.45;;;4.95;;
29984;SDS011;17387;42.690;23.328;2022-08-19T11:20:02;6.47;;;5.18;;
29984;SDS011;17387;42.690;23.328;2022-08-19T11:22:31;7.65;;;5.80;;
29984;SDS011;17387;42.690;23.328;2022-08-19T11:24:59;6.55;;;5.28;;
29984;SDS011;17387;42.690;23.328;2022-08-19T11:27:24;8.18;;;5.32;;
29984;SDS011;17387;42.690;23.328;2022-08-19T11:29:50;10.43;;;5.40;;
29984;SDS011;17387;42.690;23.328;2022-08-19T11:32:17;7.03;;;5.68;;
29984;SDS011;17387;42.690;23.328;2022-08-19T11:34:43;14.80;;;5.85;;
29984;SDS011;17387;42.690;23.328;2022-08-19T11:37:08;10.70;;;5.57;;
29984;SDS011;17387;42.690;23.328;2022-08-19T11:39:34;7.55;;;5.57;;
29984;SDS011;17387;42.690;23.328;2022-08-19T11:42:02;6.28;;;5.15;;
29984;SDS011;17387;42.690;23.328;2022-08-19T11:44:49;8.02;;;5.68;;
29984;SDS011;17387;42.690;23.328;2022-08-19T11:47:15;7.85;;;5.30;;
29984;SDS011;17387;42.690;23.328;2022-08-19T11:49:41;5.38;;;4.88;;
29984;SDS011;17387;42.690;23.328;2022-08-19T11:52:07;8.48;;;6.00;;
29984;SDS011;17387;42.690;23.328;2022-08-19T11:54:32;5.82;;;5.30;;
29984;SDS011;17387;42.690;23.328;2022-08-19T11:56:58;6.95;;;5.53;;
29984;SDS011;17387;42.690;23.328;2022-08-19T11:59:24;8.73;;;5.00;;
29984;SDS011;17387;42.690;23.328;2022-08-19T12:01:51;9.10;;;5.18;;
29984;SDS011;17387;42.690;23.328;2022-08-19T12:04:17;9.40;;;6.10;;
29984;SDS011;17387;42.690;23.328;2022-08-19T12:06:45;9.80;;;5.82;;
29984;SDS011;17387;42.690;23.328;2022-08-19T12:09:10;6.80;;;6.15;;
29984;SDS011;17387;42.690;23.328;2022-08-19T12:11:36;8.43;;;5.30;;
29984;SDS011;17387;42.690;23.328;2022-08-19T12:14:03;6.53;;;5.35;;
29984;SDS011;17387;42.690;23.328;2022-08-19T12:16:29;11.52;;;5.40;;
29984;SDS011;17387;42.690;23.328;2022-08-19T12:18:57;7.60;;;6.10;;
29984;SDS011;17387;42.690;23.328;2022-08-19T12:23:53;7.90;;;5.80;;
29984;SDS011;17387;42.690;23.328;2022-08-19T12:26:20;8.23;;;5.40;;
29984;SDS011;17387;42.690;23.328;2022-08-19T12:28:45;7.85;;;5.65;;
29984;SDS011;17387;42.690;23.328;2022-08-19T12:31:12;13.10;;;5.60;;
29984;SDS011;17387;42.690;23.328;2022-08-19T12:33:38;8.48;;;5.47;;
29984;SDS011;17387;42.690;23.328;2022-08-19T12:36:05;9.02;;;5.00;;
29984;SDS011;17387;42.690;23.328;2022-08-19T12:38:32;12.57;;;6.30;;
29984;SDS011;17387;42.690;23.328;2022-08-19T12:40:59;9.88;;;6.22;;
29984;SDS011;17387;42.690;23.328;2022-08-19T12:43:24;8.20;;;5.78;;
29984;SDS011;17387;42.690;23.328;2022-08-19T12:45:50;12.52;;;5.57;;
29984;SDS011;17387;42.690;23.328;2022-08-19T12:48:15;9.95;;;5.72;;
29984;SDS011;17387;42.690;23.328;2022-08-19T12:50:42;11.13;;;5.10;;
29984;SDS011;17387;42.690;23.328;2022-08-19T12:53:10;12.80;;;5.40;;
29984;SDS011;17387;42.690;23.328;2022-08-19T12:55:36;7.03;;;5.82;;
29984;SDS011;17387;42.690;23.328;2022-08-19T12:58:01;11.48;;;9.00;;
29984;SDS011;17387;42.690;23.328;2022-08-19T13:00:27;10.43;;;6.30;;
29984;SDS011;17387;42.690;23.328;2022-08-19T13:02:53;10.30;;;6.78;;
29984;SDS011;17387;42.690;23.328;2022-08-19T13:05:20;12.93;;;7.82;;
29984;SDS011;17387;42.690;23.328;2022-08-19T13:07:48;12.18;;;8.05;;
29984;SDS011;17387;42.690;23.328;2022-08-19T13:10:16;14.50;;;10.00;;
29984;SDS011;17387;42.690;23.328;2022-08-19T13:12:45;6.97;;;5.25;;
29984;SDS011;17387;42.690;23.328;2022-08-19T13:15:13;6.88;;;5.20;;
29984;SDS011;17387;42.690;23.328;2022-08-19T13:17:43;6.68;;;5.30;;
29984;SDS011;17387;42.690;23.328;2022-08-19T13:20:09;8.00;;;5.90;;
29984;SDS011;17387;42.690;23.328;2022-08-19T13:22:35;10.15;;;5.50;;
29984;SDS011;17387;42.690;23.328;2022-08-19T13:25:01;13.65;;;7.25;;
29984;SDS011;17387;42.690;23.328;2022-08-19T13:27:28;8.52;;;6.75;;
29984;SDS011;17387;42.690;23.328;2022-08-19T13:29:54;9.18;;;8.23;;
29984;SDS011;17387;42.690;23.328;2022-08-19T13:32:38;10.90;;;8.77;;
29984;SDS011;17387;42.690;23.328;2022-08-19T13:35:22;10.30;;;6.35;;
29984;SDS011;17387;42.690;23.328;2022-08-19T13:37:47;10.40;;;7.55;;
29984;SDS011;17387;42.690;23.328;2022-08-19T13:40:20;7.53;;;5.22;;
29984;SDS011;17387;42.690;23.328;2022-08-19T13:42:50;7.32;;;5.55;;
29984;SDS011;17387;42.690;23.328;2022-08-19T13:45:17;10.32;;;5.22;;
29984;SDS011;17387;42.690;23.328;2022-08-19T13:47:48;7.00;;;4.75;;
29984;SDS011;17387;42.690;23.328;2022-08-19T13:50:16;5.80;;;4.95;;
29984;SDS011;17387;42.690;23.328;2022-08-19T13:52:44;8.18;;;5.60;;
29984;SDS011;17387;42.690;23.328;2022-08-19T13:55:10;8.35;;;5.20;;
29984;SDS011;17387;42.690;23.328;2022-08-19T13:57:37;11.07;;;5.57;;
29984;SDS011;17387;42.690;23.328;2022-08-19T14:00:11;8.13;;;5.32;;
29984;SDS011;17387;42.690;23.328;2022-08-19T14:02:40;7.75;;;6.35;;
29984;SDS011;17387;42.690;23.328;2022-08-19T14:05:06;10.00;;;5.57;;
29984;SDS011;17387;42.690;23.328;2022-08-19T14:07:34;9.68;;;5.32;;
29984;SDS011;17387;42.690;23.328;2022-08-19T14:10:01;11.10;;;5.35;;
29984;SDS011;17387;42.690;23.328;2022-08-19T14:12:44;5.65;;;4.88;;
29984;SDS011;17387;42.690;23.328;2022-08-19T14:15:10;6.90;;;4.88;;
29984;SDS011;17387;42.690;23.328;2022-08-19T14:17:40;6.60;;;5.50;;
29984;SDS011;17387;42.690;23.328;2022-08-19T14:20:08;7.05;;;5.10;;
29984;SDS011;17387;42.690;23.328;2022-08-19T14:22:36;8.13;;;5.13;;
29984;SDS011;17387;42.690;23.328;2022-08-19T14:25:03;7.50;;;5.45;;
29984;SDS011;17387;42.690;23.328;2022-08-19T14:27:32;8.27;;;5.43;;
29984;SDS011;17387;42.690;23.328;2022-08-19T14:29:59;9.20;;;6.60;;
29984;SDS011;17387;42.690;23.328;2022-08-19T14:32:24;7.38;;;6.22;;
29984;SDS011;17387;42.690;23.328;2022-08-19T14:34:52;8.73;;;6.22;;
29984;SDS011;17387;42.690;23.328;2022-08-19T14:37:18;11.05;;;6.78;;
29984;SDS011;17387;42.690;23.328;2022-08-19T14:39:44;10.10;;;6.57;;
29984;SDS011;17387;42.690;23.328;2022-08-19T14:42:10;11.55;;;7.78;;
29984;SDS011;17387;42.690;23.328;2022-08-19T14:44:36;9.93;;;5.82;;
29984;SDS011;17387;42.690;23.328;2022-08-19T14:47:02;8.15;;;5.82;;
29984;SDS011;17387;42.690;23.328;2022-08-19T14:49:28;8.27;;;5.40;;
29984;SDS011;17387;42.690;23.328;2022-08-19T14:51:54;6.57;;;5.72;;